sensor_id;sensor_type;location;lat;lon;timestamp;P1;durP1;ratioP1;P2;durP2;ratioP2
7440;SDS011;29616;51.950;8.572;2023-06-19T00:01:47;8.13;;;7.30;;
7440;SDS011;29616;51.950;8.572;2023-06-19T00:04:15;8.93;;;5.90;;
7440;SDS011;29616;51.950;8.572;2023-06-19T00:06:46;8.13;;;6.53;;
7440;SDS011;29616;51.950;8.572;2023-06-19T00:09:16;8.57;;;7.25;;
7440;SDS011;29616;51.950;8.572;2023-06-19T00:11:47;7.32;;;6.22;;
7440;SDS011;29616;51.950;8.572;2023-06-19T00:14:17;10.32;;;6.75;;
7440;SDS011;29616;51.950;8.572;2023-06-19T00:16:45;9.32;;;6.43;;
7440;SDS011;29616;51.950;8.572;2023-06-19T00:19:13;7.13;;;4.93;;
7440;SDS011;29616;51.950;8.572;2023-06-19T00:21:42;8.60;;;7.70;;
7440;SDS011;29616;51.950;8.572;2023-06-19T00:24:11;10.30;;;6.47;;
7440;SDS011;29616;51.950;8.572;2023-06-19T00:26:42;9.93;;;6.93;;
7440;SDS011;29616;51.950;8.572;2023-06-19T00:29:10;8.07;;;6.82;;
7440;SDS011;29616;51.950;8.572;2023-06-19T00:31:41;8.52;;;7.63;;
7440;SDS011;29616;51.950;8.572;2023-06-19T00:34:10;8.75;;;6.65;;
7440;SDS011;29616;51.950;8.572;2023-06-19T00:36:41;8.60;;;6.70;;
7440;SDS011;29616;51.950;8.572;2023-06-19T00:39:12;7.90;;;6.90;;
7440;SDS011;29616;51.950;8.572;2023-06-19T00:41:43;8.43;;;6.25;;
7440;SDS011;29616;51.950;8.572;2023-06-19T00:44:14;7.65;;;6.85;;
7440;SDS011;29616;51.950;8.572;2023-06-19T00:46:42;8.98;;;6.68;;
7440;SDS011;29616;51.950;8.572;2023-06-19T00:49:11;8.65;;;7.13;;
7440;SDS011;29616;51.950;8.572;2023-06-19T00:51:42;10.52;;;7.72;;
7440;SDS011;29616;51.950;8.572;2023-06-19T00:54:13;9.25;;;7.28;;
7440;SDS011;29616;51.950;8.572;2023-06-19T00:56:46;8.02;;;6.90;;
7440;SDS011;29616;51.950;8.572;2023-06-19T00:59:17;8.45;;;6.70;;
7440;SDS011;29616;51.950;8.572;2023-06-19T01:01:48;8.80;;;7.22;;
7440;SDS011;29616;51.950;8.572;2023-06-19T01:04:18;7.60;;;6.80;;
7440;SDS011;29616;51.950;8.572;2023-06-19T01:06:50;9.05;;;7.70;;
7440;SDS011;29616;51.950;8.572;2023-06-19T01:12:04;10.93;;;8.18;;
7440;SDS011;29616;51.950;8.572;2023-06-19T01:14:43;10.00;;;6.63;;
7440;SDS011;29616;51.950;8.572;2023-06-19T01:17:18;7.80;;;6.55;;
7440;SDS011;29616;51.950;8.572;2023-06-19T01:19:49;9.48;;;7.28;;
7440;SDS011;29616;51.950;8.572;2023-06-19T01:22:26;8.07;;;6.88;;
7440;SDS011;29616;51.950;8.572;2023-06-19T01:24:57;9.25;;;7.25;;
7440;SDS011;29616;51.950;8.572;2023-06-19T01:27:27;9.15;;;6.68;;
7440;SDS011;29616;51.950;8.572;2023-06-19T01:29:59;10.30;;;7.50;;
7440;SDS011;29616;51.950;8.572;2023-06-19T01:32:31;9.88;;;6.68;;
7440;SDS011;29616;51.950;8.572;2023-06-19T01:35:10;8.27;;;7.40;;
7440;SDS011;29616;51.950;8.572;2023-06-19T01:37:43;7.97;;;7.13;;
7440;SDS011;29616;51.950;8.572;2023-06-19T01:40:13;9.52;;;7.90;;
7440;SDS011;29616;51.950;8.572;2023-06-19T01:42:44;9.38;;;6.97;;
7440;SDS011;29616;51.950;8.572;2023-06-19T01:45:14;8.80;;;7.90;;
7440;SDS011;29616;51.950;8.572;2023-06-19T01:47:43;10.13;;;8.10;;
7440;SDS011;29616;51.950;8.572;2023-06-19T01:50:14;9.32;;;7.60;;
7440;SDS011;29616;51.950;8.572;2023-06-19T01:52:45;9.32;;;8.27;;
7440;SDS011;29616;51.950;8.572;2023-06-19T01:55:14;7.55;;;6.22;;
7440;SDS011;29616;51.950;8.572;2023-06-19T01:57:44;8.75;;;7.25;;
7440;SDS011;29616;51.950;8.572;2023-06-19T02:00:15;9.05;;;7.15;;
7440;SDS011;29616;51.950;8.572;2023-06-19T02:02:46;7.60;;;5.22;;
7440;SDS011;29616;51.950;8.572;2023-06-19T02:05:16;9.88;;;7.88;;
7440;SDS011;29616;51.950;8.572;2023-06-19T02:07:46;9.43;;;8.15;;
7440;SDS011;29616;51.950;8.572;2023-06-19T02:10:15;10.10;;;9.10;;
7440;SDS011;29616;51.950;8.572;2023-06-19T02:12:43;8.25;;;7.40;;
7440;SDS011;29616;51.950;8.572;2023-06-19T02:15:12;9.80;;;7.70;;
7440;SDS011;29616;51.950;8.572;2023-06-19T02:17:42;7.95;;;6.75;;
7440;SDS011;29616;51.950;8.572;2023-06-19T02:20:11;9.15;;;7.47;;
7440;SDS011;29616;51.950;8.572;2023-06-19T02:22:41;8.82;;;7.43;;
7440;SDS011;29616;51.950;8.572;2023-06-19T02:25:14;10.13;;;7.78;;
7440;SDS011;29616;51.950;8.572;2023-06-19T02:27:43;7.80;;;6.97;;
7440;SDS011;29616;51.950;8.572;2023-06-19T02:30:14;7.97;;;6.82;;
7440;SDS011;29616;51.950;8.572;2023-06-19T02:32:44;9.80;;;8.68;;
7440;SDS011;29616;51.950;8.572;2023-06-19T02:35:13;9.50;;;6.07;;
7440;SDS011;29616;51.950;8.572;2023-06-19T02:37:43;8.73;;;7.75;;
7440;SDS011;29616;51.950;8.572;2023-06-19T02:40:15;8.68;;;7.07;;
7440;SDS011;29616;51.950;8.572;2023-06-19T02:42:45;9.48;;;7.85;;
7440;SDS011;29616;51.950;8.572;2023-06-19T02:45:14;8.07;;;6.90;;
7440;SDS011;29616;51.950;8.572;2023-06-19T02:47:44;9.05;;;7.10;;
7440;SDS011;29616;51.950;8.572;2023-06-19T02:50:13;8.70;;;7.00;;
7440;SDS011;29616;51.950;8.572;2023-06-19T02:52:42;8.80;;;7.75;;
7440;SDS011;29616;51.950;8.572;2023-06-19T02:55:10;9.35;;;7.40;;
7440;SDS011;29616;51.950;8.572;2023-06-19T02:57:42;7.82;;;5.55;;
7440;SDS011;29616;51.950;8.572;2023-06-19T03:00:12;6.88;;;5.07;;
7440;SDS011;29616;51.950;8.572;2023-06-19T03:02:43;9.25;;;4.90;;
7440;SDS011;29616;51.950;8.572;2023-06-19T03:05:13;9.43;;;7.82;;
7440;SDS011;29616;51.950;8.572;2023-06-19T03:07:43;9.52;;;6.65;;
7440;SDS011;29616;51.950;8.572;2023-06-19T03:10:14;10.90;;;7.80;;
7440;SDS011;29616;51.950;8.572;2023-06-19T03:12:45;8.00;;;6.78;;
7440;SDS011;29616;51.950;8.572;2023-06-19T03:15:13;8.40;;;7.20;;
7440;SDS011;29616;51.950;8.572;2023-06-19T03:17:46;8.80;;;7.90;;
7440;SDS011;29616;51.950;8.572;2023-06-19T03:20:14;9.07;;;7.45;;
7440;SDS011;29616;51.950;8.572;2023-06-19T03:22:51;9.07;;;8.00;;
7440;SDS011;29616;51.950;8.572;2023-06-19T03:25:21;9.82;;;7.05;;
7440;SDS011;29616;51.950;8.572;2023-06-19T03:27:52;10.00;;;7.60;;
7440;SDS011;29616;51.950;8.572;2023-06-19T03:30:22;10.50;;;7.75;;
7440;SDS011;29616;51.950;8.572;2023-06-19T03:32:51;10.10;;;7.28;;
7440;SDS011;29616;51.950;8.572;2023-06-19T03:35:37;9.30;;;8.07;;
7440;SDS011;29616;51.950;8.572;2023-06-19T03:38:36;9.00;;;7.25;;
7440;SDS011;29616;51.950;8.572;2023-06-19T03:41:08;9.65;;;7.60;;
7440;SDS011;29616;51.950;8.572;2023-06-19T03:43:41;9.32;;;7.28;;
7440;SDS011;29616;51.950;8.572;2023-06-19T03:46:09;8.98;;;7.47;;
7440;SDS011;29616;51.950;8.572;2023-06-19T03:48:40;10.02;;;7.75;;
7440;SDS011;29616;51.950;8.572;2023-06-19T03:51:09;10.27;;;7.78;;
7440;SDS011;29616;51.950;8.572;2023-06-19T03:53:39;9.23;;;7.45;;
7440;SDS011;29616;51.950;8.572;2023-06-19T03:56:09;9.93;;;8.68;;
7440;SDS011;29616;51.950;8.572;2023-06-19T03:58:43;9.50;;;8.43;;
7440;SDS011;29616;51.950;8.572;2023-06-19T04:01:11;9.40;;;7.35;;
7440;SDS011;29616;51.950;8.572;2023-06-19T04:03:40;10.68;;;8.02;;
7440;SDS011;29616;51.950;8.572;2023-06-19T04:06:11;9.68;;;7.72;;
7440;SDS011;29616;51.950;8.572;2023-06-19T04:08:40;10.45;;;9.25;;
7440;SDS011;29616;51.950;8.572;2023-06-19T04:11:11;9.73;;;7.93;;
7440;SDS011;29616;51.950;8.572;2023-06-19T04:13:40;9.70;;;8.45;;
7440;SDS011;29616;51.950;8.572;2023-06-19T04:16:13;8.82;;;7.60;;
7440;SDS011;29616;51.950;8.572;2023-06-19T04:18:42;10.27;;;8.18;;
7440;SDS011;29616;51.950;8.572;2023-06-19T04:21:11;9.95;;;8.00;;
7440;SDS011;29616;51.950;8.572;2023-06-19T04:23:43;9.20;;;7.88;;
7440;SDS011;29616;51.950;8.572;2023-06-19T04:26:14;9.10;;;7.65;;
7440;SDS011;29616;51.950;8.572;2023-06-19T04:28:42;10.10;;;8.45;;
7440;SDS011;29616;51.950;8.572;2023-06-19T04:31:12;10.48;;;8.05;;
7440;SDS011;29616;51.950;8.572;2023-06-19T04:33:45;8.60;;;5.97;;
7440;SDS011;29616;51.950;8.572;2023-06-19T04:36:15;11.25;;;9.30;;
7440;SDS011;29616;51.950;8.572;2023-06-19T04:38:45;10.73;;;6.13;;
7440;SDS011;29616;51.950;8.572;2023-06-19T04:41:17;12.43;;;9.40;;
7440;SDS011;29616;51.950;8.572;2023-06-19T04:43:46;9.93;;;8.93;;
7440;SDS011;29616;51.950;8.572;2023-06-19T04:46:17;9.57;;;6.22;;
7440;SDS011;29616;51.950;8.572;2023-06-19T04:48:47;10.73;;;8.27;;
7440;SDS011;29616;51.950;8.572;2023-06-19T04:51:18;10.20;;;6.88;;
7440;SDS011;29616;51.950;8.572;2023-06-19T04:53:48;10.10;;;8.07;;
7440;SDS011;29616;51.950;8.572;2023-06-19T04:56:17;11.25;;;8.13;;
7440;SDS011;29616;51.950;8.572;2023-06-19T04:58:46;8.35;;;7.05;;
7440;SDS011;29616;51.950;8.572;2023-06-19T05:01:17;9.00;;;7.68;;
7440;SDS011;29616;51.950;8.572;2023-06-19T05:03:50;8.50;;;7.60;;
7440;SDS011;29616;51.950;8.572;2023-06-19T05:06:20;8.88;;;7.55;;
7440;SDS011;29616;51.950;8.572;2023-06-19T05:08:50;12.15;;;8.00;;
7440;SDS011;29616;51.950;8.572;2023-06-19T05:11:20;7.63;;;6.30;;
7440;SDS011;29616;51.950;8.572;2023-06-19T05:13:51;9.43;;;7.93;;
7440;SDS011;29616;51.950;8.572;2023-06-19T05:16:21;8.43;;;7.47;;
7440;SDS011;29616;51.950;8.572;2023-06-19T05:18:53;9.32;;;7.70;;
7440;SDS011;29616;51.950;8.572;2023-06-19T05:21:22;7.90;;;6.35;;
7440;SDS011;29616;51.950;8.572;2023-06-19T05:23:53;8.68;;;7.35;;
7440;SDS011;29616;51.950;8.572;2023-06-19T05:26:22;9.23;;;7.95;;
7440;SDS011;29616;51.950;8.572;2023-06-19T05:28:52;8.73;;;7.03;;
7440;SDS011;29616;51.950;8.572;2023-06-19T05:31:24;9.32;;;7.30;;
7440;SDS011;29616;51.950;8.572;2023-06-19T05:33:52;8.60;;;7.20;;
7440;SDS011;29616;51.950;8.572;2023-06-19T05:36:23;7.97;;;7.07;;
7440;SDS011;29616;51.950;8.572;2023-06-19T05:38:53;8.48;;;7.68;;
7440;SDS011;29616;51.950;8.572;2023-06-19T05:41:24;8.35;;;7.10;;
7440;SDS011;29616;51.950;8.572;2023-06-19T05:43:53;7.68;;;6.80;;
7440;SDS011;29616;51.950;8.572;2023-06-19T05:46:22;8.73;;;7.70;;
7440;SDS011;29616;51.950;8.572;2023-06-19T05:48:52;12.98;;;7.72;;
7440;SDS011;29616;51.950;8.572;2023-06-19T05:51:23;9.35;;;6.70;;
7440;SDS011;29616;51.950;8.572;2023-06-19T05:53:52;10.35;;;7.78;;
7440;SDS011;29616;51.950;8.572;2023-06-19T05:56:26;10.75;;;7.03;;
7440;SDS011;29616;51.950;8.572;2023-06-19T05:58:56;8.60;;;7.22;;
7440;SDS011;29616;51.950;8.572;2023-06-19T06:01:26;7.55;;;6.07;;
7440;SDS011;29616;51.950;8.572;2023-06-19T06:03:57;8.40;;;6.85;;
7440;SDS011;29616;51.950;8.572;2023-06-19T06:06:29;8.15;;;7.35;;
7440;SDS011;29616;51.950;8.572;2023-06-19T06:08:59;7.68;;;6.97;;
7440;SDS011;29616;51.950;8.572;2023-06-19T06:11:28;6.28;;;5.60;;
7440;SDS011;29616;51.950;8.572;2023-06-19T06:14:01;6.50;;;5.90;;
7440;SDS011;29616;51.950;8.572;2023-06-19T06:16:33;6.53;;;5.93;;
7440;SDS011;29616;51.950;8.572;2023-06-19T06:19:04;10.50;;;5.53;;
7440;SDS011;29616;51.950;8.572;2023-06-19T06:21:36;8.23;;;5.70;;
7440;SDS011;29616;51.950;8.572;2023-06-19T06:24:08;7.18;;;5.68;;
7440;SDS011;29616;51.950;8.572;2023-06-19T06:26:41;7.53;;;5.38;;
7440;SDS011;29616;51.950;8.572;2023-06-19T06:29:14;6.93;;;5.32;;
7440;SDS011;29616;51.950;8.572;2023-06-19T06:31:47;6.43;;;5.03;;
7440;SDS011;29616;51.950;8.572;2023-06-19T06:34:21;4.75;;;4.28;;
7440;SDS011;29616;51.950;8.572;2023-06-19T06:36:53;6.55;;;4.07;;
7440;SDS011;29616;51.950;8.572;2023-06-19T06:39:33;4.15;;;1.75;;
7440;SDS011;29616;51.950;8.572;2023-06-19T06:42:05;6.10;;;3.72;;
7440;SDS011;29616;51.950;8.572;2023-06-19T06:44:35;6.82;;;4.10;;
7440;SDS011;29616;51.950;8.572;2023-06-19T06:47:10;4.88;;;4.30;;
7440;SDS011;29616;51.950;8.572;2023-06-19T06:49:42;5.32;;;4.45;;
7440;SDS011;29616;51.950;8.572;2023-06-19T06:52:14;6.57;;;3.67;;
7440;SDS011;29616;51.950;8.572;2023-06-19T06:54:45;4.63;;;4.20;;
7440;SDS011;29616;51.950;8.572;2023-06-19T06:57:17;4.40;;;3.78;;
7440;SDS011;29616;51.950;8.572;2023-06-19T06:59:46;5.43;;;3.80;;
7440;SDS011;29616;51.950;8.572;2023-06-19T07:02:18;4.50;;;3.75;;
7440;SDS011;29616;51.950;8.572;2023-06-19T07:04:50;6.15;;;4.55;;
7440;SDS011;29616;51.950;8.572;2023-06-19T07:07:21;4.22;;;3.83;;
7440;SDS011;29616;51.950;8.572;2023-06-19T07:09:53;5.35;;;3.92;;
7440;SDS011;29616;51.950;8.572;2023-06-19T07:12:24;4.18;;;3.53;;
7440;SDS011;29616;51.950;8.572;2023-06-19T07:14:57;3.95;;;3.25;;
7440;SDS011;29616;51.950;8.572;2023-06-19T07:17:29;4.65;;;3.97;;
7440;SDS011;29616;51.950;8.572;2023-06-19T07:20:01;4.00;;;3.33;;
7440;SDS011;29616;51.950;8.572;2023-06-19T07:22:34;5.00;;;4.13;;
7440;SDS011;29616;51.950;8.572;2023-06-19T07:25:04;5.68;;;4.18;;
7440;SDS011;29616;51.950;8.572;2023-06-19T07:27:37;3.95;;;2.00;;
7440;SDS011;29616;51.950;8.572;2023-06-19T07:30:10;3.33;;;2.88;;
7440;SDS011;29616;51.950;8.572;2023-06-19T07:32:45;6.15;;;3.70;;
7440;SDS011;29616;51.950;8.572;2023-06-19T07:35:17;4.60;;;4.15;;
7440;SDS011;29616;51.950;8.572;2023-06-19T07:37:47;6.47;;;3.25;;
7440;SDS011;29616;51.950;8.572;2023-06-19T07:40:18;8.00;;;3.63;;
7440;SDS011;29616;51.950;8.572;2023-06-19T07:42:51;4.95;;;3.38;;
7440;SDS011;29616;51.950;8.572;2023-06-19T07:45:24;5.45;;;3.08;;
7440;SDS011;29616;51.950;8.572;2023-06-19T07:47:57;3.63;;;2.83;;
7440;SDS011;29616;51.950;8.572;2023-06-19T07:50:31;2.42;;;1.23;;
7440;SDS011;29616;51.950;8.572;2023-06-19T07:53:03;3.78;;;2.75;;
7440;SDS011;29616;51.950;8.572;2023-06-19T07:55:35;3.15;;;2.85;;
7440;SDS011;29616;51.950;8.572;2023-06-19T07:58:09;3.63;;;2.83;;
7440;SDS011;29616;51.950;8.572;2023-06-19T08:00:41;7.55;;;3.30;;
7440;SDS011;29616;51.950;8.572;2023-06-19T08:03:15;4.00;;;2.97;;
7440;SDS011;29616;51.950;8.572;2023-06-19T08:05:47;3.75;;;2.63;;
7440;SDS011;29616;51.950;8.572;2023-06-19T08:08:18;4.32;;;2.90;;
7440;SDS011;29616;51.950;8.572;2023-06-19T08:10:51;5.20;;;3.28;;
7440;SDS011;29616;51.950;8.572;2023-06-19T08:13:25;3.53;;;2.72;;
7440;SDS011;29616;51.950;8.572;2023-06-19T08:15:58;3.15;;;2.42;;
7440;SDS011;29616;51.950;8.572;2023-06-19T08:18:32;5.88;;;3.25;;
7440;SDS011;29616;51.950;8.572;2023-06-19T08:21:04;3.92;;;2.75;;
7440;SDS011;29616;51.950;8.572;2023-06-19T08:23:37;4.45;;;2.65;;
7440;SDS011;29616;51.950;8.572;2023-06-19T08:26:10;4.63;;;1.50;;
7440;SDS011;29616;51.950;8.572;2023-06-19T08:28:43;4.00;;;1.35;;
7440;SDS011;29616;51.950;8.572;2023-06-19T08:31:13;3.38;;;2.78;;
7440;SDS011;29616;51.950;8.572;2023-06-19T08:33:47;4.50;;;4.10;;
7440;SDS011;29616;51.950;8.572;2023-06-19T08:36:22;4.63;;;3.45;;
7440;SDS011;29616;51.950;8.572;2023-06-19T08:38:53;2.92;;;1.58;;
7440;SDS011;29616;51.950;8.572;2023-06-19T08:41:23;5.43;;;3.53;;
7440;SDS011;29616;51.950;8.572;2023-06-19T08:43:54;6.93;;;1.60;;
7440;SDS011;29616;51.950;8.572;2023-06-19T08:46:26;4.35;;;3.78;;
7440;SDS011;29616;51.950;8.572;2023-06-19T08:48:55;4.40;;;4.00;;
7440;SDS011;29616;51.950;8.572;2023-06-19T08:51:26;4.38;;;3.97;;
7440;SDS011;29616;51.950;8.572;2023-06-19T08:53:59;4.03;;;3.53;;
7440;SDS011;29616;51.950;8.572;2023-06-19T08:56:34;4.53;;;4.13;;
7440;SDS011;29616;51.950;8.572;2023-06-19T08:59:08;5.22;;;4.32;;
7440;SDS011;29616;51.950;8.572;2023-06-19T09:01:39;5.32;;;3.78;;
7440;SDS011;29616;51.950;8.572;2023-06-19T09:04:11;5.38;;;4.25;;
7440;SDS011;29616;51.950;8.572;2023-06-19T09:06:48;4.90;;;4.25;;
7440;SDS011;29616;51.950;8.572;2023-06-19T09:09:19;4.55;;;4.15;;
7440;SDS011;29616;51.950;8.572;2023-06-19T09:11:59;4.75;;;4.35;;
7440;SDS011;29616;51.950;8.572;2023-06-19T09:14:33;5.68;;;4.55;;
7440;SDS011;29616;51.950;8.572;2023-06-19T09:17:04;4.85;;;4.45;;
7440;SDS011;29616;51.950;8.572;2023-06-19T09:19:46;5.22;;;3.60;;
7440;SDS011;29616;51.950;8.572;2023-06-19T09:22:17;7.03;;;5.63;;
7440;SDS011;29616;51.950;8.572;2023-06-19T09:24:50;4.82;;;3.88;;
7440;SDS011;29616;51.950;8.572;2023-06-19T09:27:19;5.82;;;5.32;;
7440;SDS011;29616;51.950;8.572;2023-06-19T09:29:49;6.82;;;6.30;;
7440;SDS011;29616;51.950;8.572;2023-06-19T09:32:18;6.32;;;5.72;;
7440;SDS011;29616;51.950;8.572;2023-06-19T09:34:53;6.80;;;6.20;;
7440;SDS011;29616;51.950;8.572;2023-06-19T09:37:25;7.53;;;6.82;;
7440;SDS011;29616;51.950;8.572;2023-06-19T09:39:56;6.28;;;5.68;;
7440;SDS011;29616;51.950;8.572;2023-06-19T09:42:29;7.63;;;6.93;;
7440;SDS011;29616;51.950;8.572;2023-06-19T09:45:00;4.10;;;3.42;;
7440;SDS011;29616;51.950;8.572;2023-06-19T09:47:32;4.95;;;4.45;;
7440;SDS011;29616;51.950;8.572;2023-06-19T09:50:06;7.15;;;6.65;;
7440;SDS011;29616;51.950;8.572;2023-06-19T09:52:37;7.25;;;5.95;;
7440;SDS011;29616;51.950;8.572;2023-06-19T09:55:08;6.75;;;5.97;;
7440;SDS011;29616;51.950;8.572;2023-06-19T09:57:42;5.15;;;4.43;;
7440;SDS011;29616;51.950;8.572;2023-06-19T10:00:13;7.18;;;6.57;;
7440;SDS011;29616;51.950;8.572;2023-06-19T10:02:49;6.47;;;5.88;;
7440;SDS011;29616;51.950;8.572;2023-06-19T10:05:28;6.70;;;6.10;;
7440;SDS011;29616;51.950;8.572;2023-06-19T10:07:59;6.60;;;6.05;;
7440;SDS011;29616;51.950;8.572;2023-06-19T10:10:31;7.00;;;5.63;;
7440;SDS011;29616;51.950;8.572;2023-06-19T10:13:11;5.05;;;4.65;;
7440;SDS011;29616;51.950;8.572;2023-06-19T10:15:42;6.47;;;5.90;;
7440;SDS011;29616;51.950;8.572;2023-06-19T10:18:15;3.95;;;2.58;;
7440;SDS011;29616;51.950;8.572;2023-06-19T10:20:46;6.15;;;5.60;;
7440;SDS011;29616;51.950;8.572;2023-06-19T10:23:17;5.93;;;5.40;;
7440;SDS011;29616;51.950;8.572;2023-06-19T10:25:55;8.23;;;7.68;;
7440;SDS011;29616;51.950;8.572;2023-06-19T10:28:30;4.80;;;4.40;;
7440;SDS011;29616;51.950;8.572;2023-06-19T10:31:01;5.68;;;5.10;;
7440;SDS011;29616;51.950;8.572;2023-06-19T10:33:33;5.65;;;5.15;;
7440;SDS011;29616;51.950;8.572;2023-06-19T10:36:14;3.90;;;3.20;;
7440;SDS011;29616;51.950;8.572;2023-06-19T10:38:45;6.18;;;5.40;;
7440;SDS011;29616;51.950;8.572;2023-06-19T10:41:15;3.17;;;2.83;;
7440;SDS011;29616;51.950;8.572;2023-06-19T10:43:52;7.55;;;5.43;;
7440;SDS011;29616;51.950;8.572;2023-06-19T10:46:21;5.70;;;5.20;;
7440;SDS011;29616;51.950;8.572;2023-06-19T10:48:53;5.18;;;3.50;;
7440;SDS011;29616;51.950;8.572;2023-06-19T10:51:30;5.38;;;4.88;;
7440;SDS011;29616;51.950;8.572;2023-06-19T10:53:58;6.28;;;5.78;;
7440;SDS011;29616;51.950;8.572;2023-06-19T10:56:27;6.85;;;6.15;;
7440;SDS011;29616;51.950;8.572;2023-06-19T10:58:57;5.45;;;4.95;;
7440;SDS011;29616;51.950;8.572;2023-06-19T11:01:36;7.57;;;4.80;;
7440;SDS011;29616;51.950;8.572;2023-06-19T11:04:06;6.22;;;5.72;;
7440;SDS011;29616;51.950;8.572;2023-06-19T11:06:40;7.18;;;6.53;;
7440;SDS011;29616;51.950;8.572;2023-06-19T11:09:10;6.20;;;5.55;;
7440;SDS011;29616;51.950;8.572;2023-06-19T11:11:43;7.93;;;6.35;;
7440;SDS011;29616;51.950;8.572;2023-06-19T11:14:15;7.13;;;6.43;;
7440;SDS011;29616;51.950;8.572;2023-06-19T11:16:45;6.57;;;5.93;;
7440;SDS011;29616;51.950;8.572;2023-06-19T11:19:15;6.38;;;5.78;;
7440;SDS011;29616;51.950;8.572;2023-06-19T11:21:50;6.68;;;6.05;;
7440;SDS011;29616;51.950;8.572;2023-06-19T11:24:22;5.05;;;4.55;;
7440;SDS011;29616;51.950;8.572;2023-06-19T11:26:52;7.03;;;6.35;;
7440;SDS011;29616;51.950;8.572;2023-06-19T11:29:22;8.10;;;7.40;;
7440;SDS011;29616;51.950;8.572;2023-06-19T11:31:53;10.02;;;4.88;;
7440;SDS011;29616;51.950;8.572;2023-06-19T11:34:37;7.80;;;7.07;;
7440;SDS011;29616;51.950;8.572;2023-06-19T11:37:13;6.85;;;6.25;;
7440;SDS011;29616;51.950;8.572;2023-06-19T11:39:44;7.38;;;6.68;;
7440;SDS011;29616;51.950;8.572;2023-06-19T11:42:13;5.85;;;5.35;;
7440;SDS011;29616;51.950;8.572;2023-06-19T11:44:52;10.18;;;5.55;;
7440;SDS011;29616;51.950;8.572;2023-06-19T11:47:22;6.78;;;4.90;;
7440;SDS011;29616;51.950;8.572;2023-06-19T11:49:53;4.65;;;4.03;;
7440;SDS011;29616;51.950;8.572;2023-06-19T11:52:24;3.53;;;2.30;;
7440;SDS011;29616;51.950;8.572;2023-06-19T11:54:54;5.15;;;4.70;;
7440;SDS011;29616;51.950;8.572;2023-06-19T11:57:23;4.20;;;3.80;;
7440;SDS011;29616;51.950;8.572;2023-06-19T11:59:54;4.05;;;3.65;;
7440;SDS011;29616;51.950;8.572;2023-06-19T12:02:25;3.95;;;3.58;;
7440;SDS011;29616;51.950;8.572;2023-06-19T12:04:54;4.43;;;3.97;;
7440;SDS011;29616;51.950;8.572;2023-06-19T12:07:25;4.68;;;4.35;;
7440;SDS011;29616;51.950;8.572;2023-06-19T12:09:55;4.07;;;3.38;;
7440;SDS011;29616;51.950;8.572;2023-06-19T12:12:26;4.68;;;4.28;;
7440;SDS011;29616;51.950;8.572;2023-06-19T12:14:54;2.95;;;1.95;;
7440;SDS011;29616;51.950;8.572;2023-06-19T12:17:24;4.80;;;4.47;;
7440;SDS011;29616;51.950;8.572;2023-06-19T12:19:54;5.47;;;5.07;;
7440;SDS011;29616;51.950;8.572;2023-06-19T12:22:24;3.70;;;2.22;;
7440;SDS011;29616;51.950;8.572;2023-06-19T12:24:53;4.50;;;4.10;;
7440;SDS011;29616;51.950;8.572;2023-06-19T12:27:25;4.43;;;4.03;;
7440;SDS011;29616;51.950;8.572;2023-06-19T12:29:54;5.35;;;4.85;;
7440;SDS011;29616;51.950;8.572;2023-06-19T12:32:25;5.03;;;2.20;;
7440;SDS011;29616;51.950;8.572;2023-06-19T12:34:55;3.97;;;2.30;;
7440;SDS011;29616;51.950;8.572;2023-06-19T12:37:23;4.78;;;4.28;;
7440;SDS011;29616;51.950;8.572;2023-06-19T12:39:55;4.15;;;3.60;;
7440;SDS011;29616;51.950;8.572;2023-06-19T12:42:24;4.55;;;4.15;;
7440;SDS011;29616;51.950;8.572;2023-06-19T12:44:55;5.80;;;4.95;;
7440;SDS011;29616;51.950;8.572;2023-06-19T12:47:25;5.07;;;3.83;;
7440;SDS011;29616;51.950;8.572;2023-06-19T12:49:55;4.40;;;3.78;;
7440;SDS011;29616;51.950;8.572;2023-06-19T12:52:23;5.22;;;4.72;;
7440;SDS011;29616;51.950;8.572;2023-06-19T12:54:56;5.28;;;4.78;;
7440;SDS011;29616;51.950;8.572;2023-06-19T12:57:27;5.63;;;5.05;;
7440;SDS011;29616;51.950;8.572;2023-06-19T12:59:57;8.40;;;4.88;;
7440;SDS011;29616;51.950;8.572;2023-06-19T13:02:28;4.57;;;4.18;;
7440;SDS011;29616;51.950;8.572;2023-06-19T13:04:59;4.30;;;3.90;;
7440;SDS011;29616;51.950;8.572;2023-06-19T13:07:29;3.95;;;3.65;;
7440;SDS011;29616;51.950;8.572;2023-06-19T13:09:59;4.22;;;3.85;;
7440;SDS011;29616;51.950;8.572;2023-06-19T13:12:28;3.72;;;3.42;;
7440;SDS011;29616;51.950;8.572;2023-06-19T13:14:58;5.22;;;3.95;;
7440;SDS011;29616;51.950;8.572;2023-06-19T13:17:26;4.97;;;4.15;;
7440;SDS011;29616;51.950;8.572;2023-06-19T13:19:55;4.70;;;4.15;;
7440;SDS011;29616;51.950;8.572;2023-06-19T13:22:28;6.38;;;5.80;;
7440;SDS011;29616;51.950;8.572;2023-06-19T13:24:59;5.45;;;4.40;;
7440;SDS011;29616;51.950;8.572;2023-06-19T13:27:28;4.78;;;4.00;;
7440;SDS011;29616;51.950;8.572;2023-06-19T13:29:59;4.40;;;3.97;;
7440;SDS011;29616;51.950;8.572;2023-06-19T13:32:30;2.78;;;2.20;;
7440;SDS011;29616;51.950;8.572;2023-06-19T13:34:59;3.05;;;2.15;;
7440;SDS011;29616;51.950;8.572;2023-06-19T13:37:29;6.05;;;4.35;;
7440;SDS011;29616;51.950;8.572;2023-06-19T13:40:02;3.97;;;3.63;;
7440;SDS011;29616;51.950;8.572;2023-06-19T13:42:32;3.95;;;3.53;;
7440;SDS011;29616;51.950;8.572;2023-06-19T13:45:02;4.65;;;3.90;;
7440;SDS011;29616;51.950;8.572;2023-06-19T13:47:31;4.22;;;3.83;;
7440;SDS011;29616;51.950;8.572;2023-06-19T13:50:01;4.82;;;4.28;;
7440;SDS011;29616;51.950;8.572;2023-06-19T13:52:29;4.25;;;3.85;;
7440;SDS011;29616;51.950;8.572;2023-06-19T13:54:59;5.13;;;4.25;;
7440;SDS011;29616;51.950;8.572;2023-06-19T13:57:31;3.55;;;3.25;;
7440;SDS011;29616;51.950;8.572;2023-06-19T14:00:01;4.63;;;3.75;;
7440;SDS011;29616;51.950;8.572;2023-06-19T14:02:38;4.72;;;4.32;;
7440;SDS011;29616;51.950;8.572;2023-06-19T14:05:09;5.40;;;4.38;;
7440;SDS011;29616;51.950;8.572;2023-06-19T14:07:42;4.88;;;4.38;;
7440;SDS011;29616;51.950;8.572;2023-06-19T14:10:11;7.07;;;6.47;;
7440;SDS011;29616;51.950;8.572;2023-06-19T14:12:42;4.55;;;4.18;;
7440;SDS011;29616;51.950;8.572;2023-06-19T14:15:12;5.63;;;5.22;;
7440;SDS011;29616;51.950;8.572;2023-06-19T14:17:41;5.72;;;5.25;;
7440;SDS011;29616;51.950;8.572;2023-06-19T14:20:10;5.75;;;5.28;;
7440;SDS011;29616;51.950;8.572;2023-06-19T14:22:41;4.95;;;4.55;;
7440;SDS011;29616;51.950;8.572;2023-06-19T14:25:10;5.68;;;5.28;;
7440;SDS011;29616;51.950;8.572;2023-06-19T14:27:40;6.97;;;6.38;;
7440;SDS011;29616;51.950;8.572;2023-06-19T14:30:12;7.63;;;5.60;;
7440;SDS011;29616;51.950;8.572;2023-06-19T14:32:41;6.72;;;5.82;;
7440;SDS011;29616;51.950;8.572;2023-06-19T14:35:09;4.80;;;3.83;;
7440;SDS011;29616;51.950;8.572;2023-06-19T14:37:38;6.55;;;5.95;;
7440;SDS011;29616;51.950;8.572;2023-06-19T14:40:08;7.00;;;6.47;;
7440;SDS011;29616;51.950;8.572;2023-06-19T14:42:38;6.55;;;5.82;;
7440;SDS011;29616;51.950;8.572;2023-06-19T14:45:08;6.80;;;6.22;;
7440;SDS011;29616;51.950;8.572;2023-06-19T14:47:37;6.72;;;6.13;;
7440;SDS011;29616;51.950;8.572;2023-06-19T14:50:07;6.53;;;5.93;;
7440;SDS011;29616;51.950;8.572;2023-06-19T14:52:36;6.25;;;5.75;;
7440;SDS011;29616;51.950;8.572;2023-06-19T14:55:05;7.47;;;6.00;;
7440;SDS011;29616;51.950;8.572;2023-06-19T14:57:35;6.57;;;5.53;;
7440;SDS011;29616;51.950;8.572;2023-06-19T15:00:05;4.70;;;3.15;;
7440;SDS011;29616;51.950;8.572;2023-06-19T15:02:37;6.07;;;5.45;;
7440;SDS011;29616;51.950;8.572;2023-06-19T15:05:09;6.15;;;5.65;;
7440;SDS011;29616;51.950;8.572;2023-06-19T15:07:37;7.05;;;6.45;;
7440;SDS011;29616;51.950;8.572;2023-06-19T15:10:08;6.95;;;6.35;;
7440;SDS011;29616;51.950;8.572;2023-06-19T15:12:40;7.47;;;5.80;;
7440;SDS011;29616;51.950;8.572;2023-06-19T15:15:10;6.93;;;5.93;;
7440;SDS011;29616;51.950;8.572;2023-06-19T15:17:38;6.57;;;5.95;;
7440;SDS011;29616;51.950;8.572;2023-06-19T15:20:07;7.50;;;6.90;;
7440;SDS011;29616;51.950;8.572;2023-06-19T15:22:37;4.63;;;3.97;;
7440;SDS011;29616;51.950;8.572;2023-06-19T15:25:07;6.95;;;6.40;;
7440;SDS011;29616;51.950;8.572;2023-06-19T15:27:37;6.63;;;6.13;;